sensor_id;sensor_type;location;lat;lon;timestamp;temperature;humidity
55785;DHT22;41709;52.536;5.688;2024-03-23T00:54:31;8.10;90.00
55785;DHT22;41709;52.536;5.688;2024-03-23T00:56:57;8.10;90.00
55785;DHT22;41709;52.536;5.688;2024-03-23T00:59:22;8.00;90.00
55785;DHT22;41709;52.536;5.688;2024-03-23T01:01:52;8.00;90.00
55785;DHT22;41709;52.536;5.688;2024-03-23T01:04:18;8.00;90.00
55785;DHT22;41709;52.536;5.688;2024-03-23T01:06:43;7.90;90.10
55785;DHT22;41709;52.536;5.688;2024-03-23T01:09:09;7.90;90.10
55785;DHT22;41709;52.536;5.688;2024-03-23T01:11:36;7.90;90.10
55785;DHT22;41709;52.536;5.688;2024-03-23T01:14:02;7.90;90.10
55785;DHT22;41709;52.536;5.688;2024-03-23T01:16:27;7.90;90.10
55785;DHT22;41709;52.536;5.688;2024-03-23T01:18:53;7.80;90.10
55785;DHT22;41709;52.536;5.688;2024-03-23T01:21:18;7.90;90.10
55785;DHT22;41709;52.536;5.688;2024-03-23T01:23:44;7.80;90.10
55785;DHT22;41709;52.536;5.688;2024-03-23T01:26:09;7.80;90.10
55785;DHT22;41709;52.536;5.688;2024-03-23T01:28:35;7.80;90.10
55785;DHT22;41709;52.536;5.688;2024-03-23T01:31:00;7.80;90.20
55785;DHT22;41709;52.536;5.688;2024-03-23T01:33:25;7.80;90.10
55785;DHT22;41709;52.536;5.688;2024-03-23T01:35:51;7.80;90.20
55785;DHT22;41709;52.536;5.688;2024-03-23T01:38:16;7.80;90.10
55785;DHT22;41709;52.536;5.688;2024-03-23T01:40:42;7.80;90.10
55785;DHT22;41709;52.536;5.688;2024-03-23T01:43:08;7.70;90.10
55785;DHT22;41709;52.536;5.688;2024-03-23T01:45:33;7.70;90.10
55785;DHT22;41709;52.536;5.688;2024-03-23T01:47:59;7.70;90.10
55785;DHT22;41709;52.536;5.688;2024-03-23T01:50:25;7.70;90.10
55785;DHT22;41709;52.536;5.688;2024-03-23T01:52:50;7.70;90.10
55785;DHT22;41709;52.536;5.688;2024-03-23T01:55:16;7.70;90.10
55785;DHT22;41709;52.536;5.688;2024-03-23T01:57:41;7.70;90.10
55785;DHT22;41709;52.536;5.688;2024-03-23T02:00:07;7.60;90.00
55785;DHT22;41709;52.536;5.688;2024-03-23T02:02:34;7.60;90.00
55785;DHT22;41709;52.536;5.688;2024-03-23T02:05:00;7.60;90.00
55785;DHT22;41709;52.536;5.688;2024-03-23T02:07:25;7.60;90.00
55785;DHT22;41709;52.536;5.688;2024-03-23T02:09:51;7.60;90.10
55785;DHT22;41709;52.536;5.688;2024-03-23T02:12:17;7.60;90.00
55785;DHT22;41709;52.536;5.688;2024-03-23T02:14:42;7.50;90.00
55785;DHT22;41709;52.536;5.688;2024-03-23T02:17:08;7.50;90.00
55785;DHT22;41709;52.536;5.688;2024-03-23T02:19:34;7.50;90.00
55785;DHT22;41709;52.536;5.688;2024-03-23T02:21:59;7.50;90.00
55785;DHT22;41709;52.536;5.688;2024-03-23T02:24:25;7.50;90.00
55785;DHT22;41709;52.536;5.688;2024-03-23T02:26:50;7.40;89.90
55785;DHT22;41709;52.536;5.688;2024-03-23T02:29:15;7.40;89.80
55785;DHT22;41709;52.536;5.688;2024-03-23T02:31:41;7.40;89.70
55785;DHT22;41709;52.536;5.688;2024-03-23T02:34:07;7.40;89.60
55785;DHT22;41709;52.536;5.688;2024-03-23T02:36:32;7.30;89.30
55785;DHT22;41709;52.536;5.688;2024-03-23T02:38:58;7.30;89.20
55785;DHT22;41709;52.536;5.688;2024-03-23T02:41:23;7.30;89.30
55785;DHT22;41709;52.536;5.688;2024-03-23T02:43:49;7.20;89.20
55785;DHT22;41709;52.536;5.688;2024-03-23T02:46:15;7.20;89.30
55785;DHT22;41709;52.536;5.688;2024-03-23T02:48:40;7.20;89.30
55785;DHT22;41709;52.536;5.688;2024-03-23T02:51:06;7.20;89.40
55785;DHT22;41709;52.536;5.688;2024-03-23T02:53:31;7.20;89.60
55785;DHT22;41709;52.536;5.688;2024-03-23T02:55:59;7.10;89.60
55785;DHT22;41709;52.536;5.688;2024-03-23T02:58:25;7.20;89.60
55785;DHT22;41709;52.536;5.688;2024-03-23T03:00:50;7.10;89.50
55785;DHT22;41709;52.536;5.688;2024-03-23T03:03:16;7.10;89.40
55785;DHT22;41709;52.536;5.688;2024-03-23T03:05:41;7.10;89.40
55785;DHT22;41709;52.536;5.688;2024-03-23T03:08:06;7.10;89.30
55785;DHT22;41709;52.536;5.688;2024-03-23T03:10:32;7.10;89.30
55785;DHT22;41709;52.536;5.688;2024-03-23T03:13:00;7.00;89.10
55785;DHT22;41709;52.536;5.688;2024-03-23T03:15:25;7.00;89.20
55785;DHT22;41709;52.536;5.688;2024-03-23T03:17:51;6.90;89.30
55785;DHT22;41709;52.536;5.688;2024-03-23T03:20:16;6.90;89.20
55785;DHT22;41709;52.536;5.688;2024-03-23T03:22:43;6.90;89.00
55785;DHT22;41709;52.536;5.688;2024-03-23T03:25:09;6.90;89.10
55785;DHT22;41709;52.536;5.688;2024-03-23T03:27:34;6.90;88.90
55785;DHT22;41709;52.536;5.688;2024-03-23T03:30:00;6.90;88.80
55785;DHT22;41709;52.536;5.688;2024-03-23T03:32:30;6.90;88.80
55785;DHT22;41709;52.536;5.688;2024-03-23T03:34:56;7.00;88.80
55785;DHT22;41709;52.536;5.688;2024-03-23T03:37:21;7.00;88.80
55785;DHT22;41709;52.536;5.688;2024-03-23T03:39:47;7.00;88.80
55785;DHT22;41709;52.536;5.688;2024-03-23T03:42:12;7.00;88.80
55785;DHT22;41709;52.536;5.688;2024-03-23T03:44:37;7.10;88.80
55785;DHT22;41709;52.536;5.688;2024-03-23T03:47:03;7.10;88.80
55785;DHT22;41709;52.536;5.688;2024-03-23T03:49:30;7.10;88.70
55785;DHT22;41709;52.536;5.688;2024-03-23T03:51:56;7.10;88.30
55785;DHT22;41709;52.536;5.688;2024-03-23T03:54:21;7.10;88.30
55785;DHT22;41709;52.536;5.688;2024-03-23T03:56:47;7.10;88.10
55785;DHT22;41709;52.536;5.688;2024-03-23T03:59:12;7.10;87.90
55785;DHT22;41709;52.536;5.688;2024-03-23T04:01:37;7.00;88.10
55785;DHT22;41709;52.536;5.688;2024-03-23T04:04:03;7.00;88.00
55785;DHT22;41709;52.536;5.688;2024-03-23T04:06:28;7.00;88.00
55785;DHT22;41709;52.536;5.688;2024-03-23T04:08:54;7.00;87.90
55785;DHT22;41709;52.536;5.688;2024-03-23T04:11:19;7.00;87.90
55785;DHT22;41709;52.536;5.688;2024-03-23T04:13:45;7.00;87.80
55785;DHT22;41709;52.536;5.688;2024-03-23T04:16:10;6.90;87.60
55785;DHT22;41709;52.536;5.688;2024-03-23T04:18:36;7.00;87.70
55785;DHT22;41709;52.536;5.688;2024-03-23T04:21:01;6.90;87.60
55785;DHT22;41709;52.536;5.688;2024-03-23T04:23:27;6.90;87.90
55785;DHT22;41709;52.536;5.688;2024-03-23T04:25:52;6.80;87.60
55785;DHT22;41709;52.536;5.688;2024-03-23T04:28:18;6.80;87.60
55785;DHT22;41709;52.536;5.688;2024-03-23T04:30:44;6.80;87.60
55785;DHT22;41709;52.536;5.688;2024-03-23T04:33:09;6.80;87.60
55785;DHT22;41709;52.536;5.688;2024-03-23T04:35:35;6.80;87.50
55785;DHT22;41709;52.536;5.688;2024-03-23T04:38:00;6.80;87.30
55785;DHT22;41709;52.536;5.688;2024-03-23T04:40:26;6.80;87.20
55785;DHT22;41709;52.536;5.688;2024-03-23T04:42:51;6.70;87.10
55785;DHT22;41709;52.536;5.688;2024-03-23T04:45:17;6.70;87.00
55785;DHT22;41709;52.536;5.688;2024-03-23T04:47:42;6.70;87.70
55785;DHT22;41709;52.536;5.688;2024-03-23T04:50:08;6.70;86.90
55785;DHT22;41709;52.536;5.688;2024-03-23T04:52:35;6.70;87.10
55785;DHT22;41709;52.536;5.688;2024-03-23T04:55:01;6.60;87.20
55785;DHT22;41709;52.536;5.688;2024-03-23T04:57:26;6.60;87.40
55785;DHT22;41709;52.536;5.688;2024-03-23T04:59:52;6.60;87.50
55785;DHT22;41709;52.536;5.688;2024-03-23T05:02:17;6.60;87.50
55785;DHT22;41709;52.536;5.688;2024-03-23T05:04:43;6.60;87.60
55785;DHT22;41709;52.536;5.688;2024-03-23T05:07:08;6.60;87.70
55785;DHT22;41709;52.536;5.688;2024-03-23T05:09:34;6.60;87.80
55785;DHT22;41709;52.536;5.688;2024-03-23T05:11:59;6.60;87.90
55785;DHT22;41709;52.536;5.688;2024-03-23T05:14:28;6.60;88.10
55785;DHT22;41709;52.536;5.688;2024-03-23T05:16:54;6.60;88.20
55785;DHT22;41709;52.536;5.688;2024-03-23T05:19:19;6.70;88.50
55785;DHT22;41709;52.536;5.688;2024-03-23T05:21:45;6.50;88.70
55785;DHT22;41709;52.536;5.688;2024-03-23T05:24:11;6.50;89.00
55785;DHT22;41709;52.536;5.688;2024-03-23T05:26:37;6.60;88.90
55785;DHT22;41709;52.536;5.688;2024-03-23T05:29:03;6.60;89.00
55785;DHT22;41709;52.536;5.688;2024-03-23T05:31:30;6.60;89.00
55785;DHT22;41709;52.536;5.688;2024-03-23T05:33:55;6.60;89.00
55785;DHT22;41709;52.536;5.688;2024-03-23T05:36:21;6.60;89.00
55785;DHT22;41709;52.536;5.688;2024-03-23T05:38:47;6.50;89.20
55785;DHT22;41709;52.536;5.688;2024-03-23T05:41:13;6.50;89.50
55785;DHT22;41709;52.536;5.688;2024-03-23T05:43:38;6.50;89.70
55785;DHT22;41709;52.536;5.688;2024-03-23T05:46:04;6.40;90.00
55785;DHT22;41709;52.536;5.688;2024-03-23T05:48:38;6.50;90.10
55785;DHT22;41709;52.536;5.688;2024-03-23T05:51:03;6.40;90.10
55785;DHT22;41709;52.536;5.688;2024-03-23T05:53:29;6.50;90.20
55785;DHT22;41709;52.536;5.688;2024-03-23T05:56:02;6.50;90.30
55785;DHT22;41709;52.536;5.688;2024-03-23T05:58:31;6.50;90.30
55785;DHT22;41709;52.536;5.688;2024-03-23T06:00:58;6.50;90.30
55785;DHT22;41709;52.536;5.688;2024-03-23T06:03:24;6.50;90.50
55785;DHT22;41709;52.536;5.688;2024-03-23T06:05:50;6.50;90.50
55785;DHT22;41709;52.536;5.688;2024-03-23T06:08:15;6.60;90.50
55785;DHT22;41709;52.536;5.688;2024-03-23T06:10:41;6.60;90.50
55785;DHT22;41709;52.536;5.688;2024-03-23T06:13:06;6.60;90.50
55785;DHT22;41709;52.536;5.688;2024-03-23T06:15:32;6.60;90.40
55785;DHT22;41709;52.536;5.688;2024-03-23T06:17:57;6.70;90.50
55785;DHT22;41709;52.536;5.688;2024-03-23T06:20:23;6.70;90.40
55785;DHT22;41709;52.536;5.688;2024-03-23T06:22:49;6.70;90.50
55785;DHT22;41709;52.536;5.688;2024-03-23T06:25:14;6.60;90.60
55785;DHT22;41709;52.536;5.688;2024-03-23T06:27:40;6.70;90.70
55785;DHT22;41709;52.536;5.688;2024-03-23T06:30:06;6.70;90.70
55785;DHT22;41709;52.536;5.688;2024-03-23T06:32:31;6.70;90.60
55785;DHT22;41709;52.536;5.688;2024-03-23T06:34:57;6.70;90.60
55785;DHT22;41709;52.536;5.688;2024-03-23T06:37:22;6.80;90.60
55785;DHT22;41709;52.536;5.688;2024-03-23T06:39:48;6.80;90.60
55785;DHT22;41709;52.536;5.688;2024-03-23T06:42:14;6.80;90.60
55785;DHT22;41709;52.536;5.688;2024-03-23T06:44:39;6.80;90.50
55785;DHT22;41709;52.536;5.688;2024-03-23T06:47:05;6.80;90.40
55785;DHT22;41709;52.536;5.688;2024-03-23T06:49:31;6.80;90.50
55785;DHT22;41709;52.536;5.688;2024-03-23T06:51:56;6.80;90.60
55785;DHT22;41709;52.536;5.688;2024-03-23T06:54:21;6.90;90.60
55785;DHT22;41709;52.536;5.688;2024-03-23T06:56:47;6.80;90.80
55785;DHT22;41709;52.536;5.688;2024-03-23T06:59:12;6.90;90.80
55785;DHT22;41709;52.536;5.688;2024-03-23T07:01:38;6.90;90.80
55785;DHT22;41709;52.536;5.688;2024-03-23T07:04:04;6.90;90.70
55785;DHT22;41709;52.536;5.688;2024-03-23T07:06:29;6.90;90.60
55785;DHT22;41709;52.536;5.688;2024-03-23T07:08:55;6.80;90.70
55785;DHT22;41709;52.536;5.688;2024-03-23T07:11:21;6.70;90.60
55785;DHT22;41709;52.536;5.688;2024-03-23T07:13:49;6.80;90.40
55785;DHT22;41709;52.536;5.688;2024-03-23T07:16:14;6.90;90.20
55785;DHT22;41709;52.536;5.688;2024-03-23T07:18:40;7.00;90.20
55785;DHT22;41709;52.536;5.688;2024-03-23T07:21:05;7.00;90.20
55785;DHT22;41709;52.536;5.688;2024-03-23T07:23:32;7.10;90.20
55785;DHT22;41709;52.536;5.688;2024-03-23T07:25:58;7.10;90.20
55785;DHT22;41709;52.536;5.688;2024-03-23T07:28:23;7.10;90.10
55785;DHT22;41709;52.536;5.688;2024-03-23T07:31:00;7.20;90.20
55785;DHT22;41709;52.536;5.688;2024-03-23T07:33:25;7.10;90.10
55785;DHT22;41709;52.536;5.688;2024-03-23T07:35:51;7.00;90.10
55785;DHT22;41709;52.536;5.688;2024-03-23T07:38:17;6.90;89.50
55785;DHT22;41709;52.536;5.688;2024-03-23T07:40:43;6.90;89.00
55785;DHT22;41709;52.536;5.688;2024-03-23T07:43:08;6.80;88.80
55785;DHT22;41709;52.536;5.688;2024-03-23T07:45:34;6.80;88.40
55785;DHT22;41709;52.536;5.688;2024-03-23T07:47:59;6.90;88.00
55785;DHT22;41709;52.536;5.688;2024-03-23T07:50:25;6.80;88.20
55785;DHT22;41709;52.536;5.688;2024-03-23T07:52:50;6.70;89.10
55785;DHT22;41709;52.536;5.688;2024-03-23T07:55:16;6.70;89.50
55785;DHT22;41709;52.536;5.688;2024-03-23T07:57:41;6.70;89.10
55785;DHT22;41709;52.536;5.688;2024-03-23T08:00:07;6.90;88.70
55785;DHT22;41709;52.536;5.688;2024-03-23T08:02:33;7.00;88.70
55785;DHT22;41709;52.536;5.688;2024-03-23T08:04:59;6.90;88.50
55785;DHT22;41709;52.536;5.688;2024-03-23T08:07:24;7.00;88.50
55785;DHT22;41709;52.536;5.688;2024-03-23T08:09:50;7.00;88.80
55785;DHT22;41709;52.536;5.688;2024-03-23T08:12:16;7.10;88.50
55785;DHT22;41709;52.536;5.688;2024-03-23T08:14:41;7.10;89.10
55785;DHT22;41709;52.536;5.688;2024-03-23T08:17:07;6.80;88.30
55785;DHT22;41709;52.536;5.688;2024-03-23T08:19:32;6.90;88.20
55785;DHT22;41709;52.536;5.688;2024-03-23T08:21:58;6.90;88.10
55785;DHT22;41709;52.536;5.688;2024-03-23T08:24:23;6.90;88.30
55785;DHT22;41709;52.536;5.688;2024-03-23T08:26:49;7.00;88.40
55785;DHT22;41709;52.536;5.688;2024-03-23T08:29:14;7.10;88.70
55785;DHT22;41709;52.536;5.688;2024-03-23T08:31:40;7.10;89.30
55785;DHT22;41709;52.536;5.688;2024-03-23T08:34:05;7.20;89.70
55785;DHT22;41709;52.536;5.688;2024-03-23T08:36:30;7.30;89.80
55785;DHT22;41709;52.536;5.688;2024-03-23T08:38:56;7.50;89.90
55785;DHT22;41709;52.536;5.688;2024-03-23T08:41:21;7.50;89.90
55785;DHT22;41709;52.536;5.688;2024-03-23T08:43:47;7.60;90.00
55785;DHT22;41709;52.536;5.688;2024-03-23T08:46:13;7.60;90.10
55785;DHT22;41709;52.536;5.688;2024-03-23T08:48:43;7.80;90.00
55785;DHT22;41709;52.536;5.688;2024-03-23T08:51:09;7.80;90.00
55785;DHT22;41709;52.536;5.688;2024-03-23T08:53:35;8.00;89.70
55785;DHT22;41709;52.536;5.688;2024-03-23T08:56:01;8.00;88.60
55785;DHT22;41709;52.536;5.688;2024-03-23T08:58:28;8.10;87.50
55785;DHT22;41709;52.536;5.688;2024-03-23T09:00:54;8.10;87.00
55785;DHT22;41709;52.536;5.688;2024-03-23T09:03:25;8.20;86.50
55785;DHT22;41709;52.536;5.688;2024-03-23T09:05:51;8.20;86.20
55785;DHT22;41709;52.536;5.688;2024-03-23T09:08:17;8.10;85.50
55785;DHT22;41709;52.536;5.688;2024-03-23T09:10:43;8.10;83.80
55785;DHT22;41709;52.536;5.688;2024-03-23T09:13:08;8.10;83.20
55785;DHT22;41709;52.536;5.688;2024-03-23T09:15:34;8.20;83.40
55785;DHT22;41709;52.536;5.688;2024-03-23T09:18:00;8.20;82.40
55785;DHT22;41709;52.536;5.688;2024-03-23T09:20:25;8.20;82.20
55785;DHT22;41709;52.536;5.688;2024-03-23T09:22:51;8.20;82.00
55785;DHT22;41709;52.536;5.688;2024-03-23T09:25:16;8.20;82.30
55785;DHT22;41709;52.536;5.688;2024-03-23T09:27:42;8.20;82.70
55785;DHT22;41709;52.536;5.688;2024-03-23T09:30:07;8.30;83.20
55785;DHT22;41709;52.536;5.688;2024-03-23T09:32:33;8.40;82.90
55785;DHT22;41709;52.536;5.688;2024-03-23T09:34:58;8.40;81.20
55785;DHT22;41709;52.536;5.688;2024-03-23T09:37:24;8.40;80.80
55785;DHT22;41709;52.536;5.688;2024-03-23T09:39:49;8.40;81.10
55785;DHT22;41709;52.536;5.688;2024-03-23T09:42:15;8.30;81.50
55785;DHT22;41709;52.536;5.688;2024-03-23T09:44:40;8.20;81.80
55785;DHT22;41709;52.536;5.688;2024-03-23T09:47:06;8.30;82.00
55785;DHT22;41709;52.536;5.688;2024-03-23T09:49:32;8.20;82.10
55785;DHT22;41709;52.536;5.688;2024-03-23T09:52:02;8.20;82.90
55785;DHT22;41709;52.536;5.688;2024-03-23T09:54:27;8.30;83.50
55785;DHT22;41709;52.536;5.688;2024-03-23T09:56:53;8.30;82.80
55785;DHT22;41709;52.536;5.688;2024-03-23T09:59:18;8.50;82.30
55785;DHT22;41709;52.536;5.688;2024-03-23T10:01:43;8.40;82.00
55785;DHT22;41709;52.536;5.688;2024-03-23T10:04:09;8.50;82.30
55785;DHT22;41709;52.536;5.688;2024-03-23T10:06:35;8.60;81.90
55785;DHT22;41709;52.536;5.688;2024-03-23T10:09:02;8.60;80.40
55785;DHT22;41709;52.536;5.688;2024-03-23T10:11:27;8.70;80.30
55785;DHT22;41709;52.536;5.688;2024-03-23T10:13:54;8.70;80.00
55785;DHT22;41709;52.536;5.688;2024-03-23T10:16:22;8.70;79.20
55785;DHT22;41709;52.536;5.688;2024-03-23T10:18:48;8.70;80.30
55785;DHT22;41709;52.536;5.688;2024-03-23T10:21:14;8.70;80.20
55785;DHT22;41709;52.536;5.688;2024-03-23T10:23:43;8.70;80.50
55785;DHT22;41709;52.536;5.688;2024-03-23T10:26:22;8.70;81.50
55785;DHT22;41709;52.536;5.688;2024-03-23T10:28:50;8.70;81.20
55785;DHT22;41709;52.536;5.688;2024-03-23T10:31:16;8.70;79.70
55785;DHT22;41709;52.536;5.688;2024-03-23T10:33:46;8.70;79.50
55785;DHT22;41709;52.536;5.688;2024-03-23T10:36:12;8.80;79.10
55785;DHT22;41709;52.536;5.688;2024-03-23T10:38:38;8.70;79.00
55785;DHT22;41709;52.536;5.688;2024-03-23T10:41:05;8.80;79.00
55785;DHT22;41709;52.536;5.688;2024-03-23T10:43:31;8.80;78.70
55785;DHT22;41709;52.536;5.688;2024-03-23T10:45:58;8.80;78.30
55785;DHT22;41709;52.536;5.688;2024-03-23T10:48:23;8.90;77.90
55785;DHT22;41709;52.536;5.688;2024-03-23T10:50:49;8.80;77.90
55785;DHT22;41709;52.536;5.688;2024-03-23T10:53:14;8.90;78.50
55785;DHT22;41709;52.536;5.688;2024-03-23T10:55:40;8.90;79.10
55785;DHT22;41709;52.536;5.688;2024-03-23T10:58:06;8.90;79.10
55785;DHT22;41709;52.536;5.688;2024-03-23T11:00:32;9.00;79.50
55785;DHT22;41709;52.536;5.688;2024-03-23T11:02:57;9.00;79.60
55785;DHT22;41709;52.536;5.688;2024-03-23T11:07:50;9.00;79.20
55785;DHT22;41709;52.536;5.688;2024-03-23T11:10:49;9.10;79.70
55785;DHT22;41709;52.536;5.688;2024-03-23T11:13:21;9.00;79.20
55785;DHT22;41709;52.536;5.688;2024-03-23T11:15:47;9.10;79.10
55785;DHT22;41709;52.536;5.688;2024-03-23T11:18:12;9.00;77.90
55785;DHT22;41709;52.536;5.688;2024-03-23T11:20:45;9.00;78.60
55785;DHT22;41709;52.536;5.688;2024-03-23T11:23:25;9.10;79.10
55785;DHT22;41709;52.536;5.688;2024-03-23T11:25:51;8.90;80.20
55785;DHT22;41709;52.536;5.688;2024-03-23T11:28:17;8.70;82.20
55785;DHT22;41709;52.536;5.688;2024-03-23T11:30:42;8.70;82.70
55785;DHT22;41709;52.536;5.688;2024-03-23T11:33:08;8.80;83.20
55785;DHT22;41709;52.536;5.688;2024-03-23T11:35:34;8.80;83.40
55785;DHT22;41709;52.536;5.688;2024-03-23T11:38:04;8.80;83.80
55785;DHT22;41709;52.536;5.688;2024-03-23T11:40:29;8.80;84.60
55785;DHT22;41709;52.536;5.688;2024-03-23T11:42:56;8.90;85.10
55785;DHT22;41709;52.536;5.688;2024-03-23T11:45:21;9.10;83.70
55785;DHT22;41709;52.536;5.688;2024-03-23T11:47:47;9.10;82.40
55785;DHT22;41709;52.536;5.688;2024-03-23T11:50:19;8.90;81.50
55785;DHT22;41709;52.536;5.688;2024-03-23T11:52:44;8.80;81.60
55785;DHT22;41709;52.536;5.688;2024-03-23T11:55:10;8.70;82.90
55785;DHT22;41709;52.536;5.688;2024-03-23T11:57:35;8.70;83.80
55785;DHT22;41709;52.536;5.688;2024-03-23T12:00:01;8.70;84.20
55785;DHT22;41709;52.536;5.688;2024-03-23T12:02:26;8.70;85.40
55785;DHT22;41709;52.536;5.688;2024-03-23T12:04:52;8.70;84.40
55785;DHT22;41709;52.536;5.688;2024-03-23T12:07:19;8.60;84.60
55785;DHT22;41709;52.536;5.688;2024-03-23T12:09:45;8.70;84.90
55785;DHT22;41709;52.536;5.688;2024-03-23T12:12:14;8.70;84.40
55785;DHT22;41709;52.536;5.688;2024-03-23T12:14:41;8.70;84.20
55785;DHT22;41709;52.536;5.688;2024-03-23T12:17:07;8.70;84.10
55785;DHT22;41709;52.536;5.688;2024-03-23T12:19:33;8.70;83.10
55785;DHT22;41709;52.536;5.688;2024-03-23T12:21:58;8.70;82.30
55785;DHT22;41709;52.536;5.688;2024-03-23T12:24:24;8.70;81.80
55785;DHT22;41709;52.536;5.688;2024-03-23T12:26:50;8.70;81.70
55785;DHT22;41709;52.536;5.688;2024-03-23T12:29:15;8.50;81.20
55785;DHT22;41709;52.536;5.688;2024-03-23T12:31:41;8.40;81.10
55785;DHT22;41709;52.536;5.688;2024-03-23T12:34:06;8.40;80.60
55785;DHT22;41709;52.536;5.688;2024-03-23T12:36:32;8.40;80.50
55785;DHT22;41709;52.536;5.688;2024-03-23T12:38:57;8.40;81.00
55785;DHT22;41709;52.536;5.688;2024-03-23T12:41:22;8.30;81.70
55785;DHT22;41709;52.536;5.688;2024-03-23T12:43:48;8.30;82.40
55785;DHT22;41709;52.536;5.688;2024-03-23T12:46:14;8.30;82.80
55785;DHT22;41709;52.536;5.688;2024-03-23T12:48:40;8.20;84.30
55785;DHT22;41709;52.536;5.688;2024-03-23T12:51:07;8.30;84.80
55785;DHT22;41709;52.536;5.688;2024-03-23T12:53:32;8.30;84.50
55785;DHT22;41709;52.536;5.688;2024-03-23T12:55:58;8.30;84.00
55785;DHT22;41709;52.536;5.688;2024-03-23T12:58:23;8.30;83.40
55785;DHT22;41709;52.536;5.688;2024-03-23T13:00:49;8.20;82.80
55785;DHT22;41709;52.536;5.688;2024-03-23T13:03:14;8.20;83.00
55785;DHT22;41709;52.536;5.688;2024-03-23T13:05:41;8.20;83.10
55785;DHT22;41709;52.536;5.688;2024-03-23T13:08:06;8.20;83.50
55785;DHT22;41709;52.536;5.688;2024-03-23T13:10:32;8.00;83.20
55785;DHT22;41709;52.536;5.688;2024-03-23T13:12:58;7.90;83.10
55785;DHT22;41709;52.536;5.688;2024-03-23T13:15:23;7.80;83.50
55785;DHT22;41709;52.536;5.688;2024-03-23T13:17:49;7.70;83.60
55785;DHT22;41709;52.536;5.688;2024-03-23T13:20:15;7.70;84.70
55785;DHT22;41709;52.536;5.688;2024-03-23T13:22:41;7.70;84.90
55785;DHT22;41709;52.536;5.688;2024-03-23T13:25:07;7.70;85.40
55785;DHT22;41709;52.536;5.688;2024-03-23T13:27:33;7.70;85.90
55785;DHT22;41709;52.536;5.688;2024-03-23T13:29:58;7.70;86.20
55785;DHT22;41709;52.536;5.688;2024-03-23T13:32:24;7.80;86.50
55785;DHT22;41709;52.536;5.688;2024-03-23T13:34:49;7.90;87.40
55785;DHT22;41709;52.536;5.688;2024-03-23T13:37:15;8.00;87.70
55785;DHT22;41709;52.536;5.688;2024-03-23T13:39:41;8.20;88.40
55785;DHT22;41709;52.536;5.688;2024-03-23T13:42:09;8.40;88.40
55785;DHT22;41709;52.536;5.688;2024-03-23T13:44:35;8.50;86.90
55785;DHT22;41709;52.536;5.688;2024-03-23T13:47:01;8.50;83.90
55785;DHT22;41709;52.536;5.688;2024-03-23T13:49:27;8.50;82.70
55785;DHT22;41709;52.536;5.688;2024-03-23T13:51:57;8.40;82.10
55785;DHT22;41709;52.536;5.688;2024-03-23T13:54:26;8.30;82.70
55785;DHT22;41709;52.536;5.688;2024-03-23T13:56:51;8.40;83.80
55785;DHT22;41709;52.536;5.688;2024-03-23T13:59:17;8.60;84.90
55785;DHT22;41709;52.536;5.688;2024-03-23T14:01:45;8.90;85.60
55785;DHT22;41709;52.536;5.688;2024-03-23T14:04:11;9.20;84.80
55785;DHT22;41709;52.536;5.688;2024-03-23T14:06:37;9.50;82.30
55785;DHT22;41709;52.536;5.688;2024-03-23T14:09:02;9.90;82.40
55785;DHT22;41709;52.536;5.688;2024-03-23T14:11:29;10.20;81.50
55785;DHT22;41709;52.536;5.688;2024-03-23T14:13:54;10.50;79.50
55785;DHT22;41709;52.536;5.688;2024-03-23T14:16:20;10.70;78.70
55785;DHT22;41709;52.536;5.688;2024-03-23T14:18:48;10.60;77.00
55785;DHT22;41709;52.536;5.688;2024-03-23T14:21:14;10.60;77.00
55785;DHT22;41709;52.536;5.688;2024-03-23T14:23:39;10.30;76.20
55785;DHT22;41709;52.536;5.688;2024-03-23T14:26:06;10.10;75.50
55785;DHT22;41709;52.536;5.688;2024-03-23T14:28:31;10.00;76.70
55785;DHT22;41709;52.536;5.688;2024-03-23T14:30:57;10.00;78.00
55785;DHT22;41709;52.536;5.688;2024-03-23T14:33:23;10.10;78.70
55785;DHT22;41709;52.536;5.688;2024-03-23T14:35:55;10.30;78.00
55785;DHT22;41709;52.536;5.688;2024-03-23T14:38:22;10.50;77.50
55785;DHT22;41709;52.536;5.688;2024-03-23T14:40:48;10.70;77.60
55785;DHT22;41709;52.536;5.688;2024-03-23T14:43:15;10.80;77.10
55785;DHT22;41709;52.536;5.688;2024-03-23T14:48:25;11.10;73.80
55785;DHT22;41709;52.536;5.688;2024-03-23T14:50:55;11.00;73.00
55785;DHT22;41709;52.536;5.688;2024-03-23T14:53:21;10.90;73.50
55785;DHT22;41709;52.536;5.688;2024-03-23T14:55:46;10.80;73.70
55785;DHT22;41709;52.536;5.688;2024-03-23T14:58:14;10.60;73.50
55785;DHT22;41709;52.536;5.688;2024-03-23T15:00:40;10.30;72.30
55785;DHT22;41709;52.536;5.688;2024-03-23T15:03:05;9.60;74.50
55785;DHT22;41709;52.536;5.688;2024-03-23T15:05:31;9.20;75.70
55785;DHT22;41709;52.536;5.688;2024-03-23T15:07:57;8.90;75.70
55785;DHT22;41709;52.536;5.688;2024-03-23T15:10:23;8.80;76.30
55785;DHT22;41709;52.536;5.688;2024-03-23T15:12:49;8.80;77.00
55785;DHT22;41709;52.536;5.688;2024-03-23T15:15:14;8.70;77.40
55785;DHT22;41709;52.536;5.688;2024-03-23T15:17:40;8.60;77.70
55785;DHT22;41709;52.536;5.688;2024-03-23T15:20:10;8.50;78.00
55785;DHT22;41709;52.536;5.688;2024-03-23T15:22:37;8.40;79.00
55785;DHT22;41709;52.536;5.688;2024-03-23T15:25:02;8.30;79.60
55785;DHT22;41709;52.536;5.688;2024-03-23T15:27:28;8.20;79.80
55785;DHT22;41709;52.536;5.688;2024-03-23T15:29:53;8.10;80.70
55785;DHT22;41709;52.536;5.688;2024-03-23T15:32:21;8.10;82.00
55785;DHT22;41709;52.536;5.688;2024-03-23T15:34:47;8.10;82.00
55785;DHT22;41709;52.536;5.688;2024-03-23T15:37:12;8.10;82.60
55785;DHT22;41709;52.536;5.688;2024-03-23T15:39:38;8.20;82.70
55785;DHT22;41709;52.536;5.688;2024-03-23T15:42:03;8.30;82.50
55785;DHT22;41709;52.536;5.688;2024-03-23T15:44:29;8.50;82.30
55785;DHT22;41709;52.536;5.688;2024-03-23T15:46:55;8.70;82.00
55785;DHT22;41709;52.536;5.688;2024-03-23T15:49:20;8.90;81.70
55785;DHT22;41709;52.536;5.688;2024-03-23T15:51:46;9.10;80.80
55785;DHT22;41709;52.536;5.688;2024-03-23T15:54:11;9.10;80.20
55785;DHT22;41709;52.536;5.688;2024-03-23T15:56:37;9.30;80.30
55785;DHT22;41709;52.536;5.688;2024-03-23T15:59:02;9.40;80.30
55785;DHT22;41709;52.536;5.688;2024-03-23T16:01:32;9.60;80.20
55785;DHT22;41709;52.536;5.688;2024-03-23T16:03:59;9.70;80.00
55785;DHT22;41709;52.536;5.688;2024-03-23T16:06:25;9.90;79.40
55785;DHT22;41709;52.536;5.688;2024-03-23T16:08:50;10.00;79.10
55785;DHT22;41709;52.536;5.688;2024-03-23T16:11:17;9.90;77.70
55785;DHT22;41709;52.536;5.688;2024-03-23T16:13:43;9.80;77.90
55785;DHT22;41709;52.536;5.688;2024-03-23T16:16:08;9.80;78.10
55785;DHT22;41709;52.536;5.688;2024-03-23T16:18:35;9.70;77.60
55785;DHT22;41709;52.536;5.688;2024-03-23T16:21:02;9.60;77.80
55785;DHT22;41709;52.536;5.688;2024-03-23T16:23:28;9.60;78.00
55785;DHT22;41709;52.536;5.688;2024-03-23T16:25:54;9.40;76.70
55785;DHT22;41709;52.536;5.688;2024-03-23T16:33:20;9.20;74.30
55785;DHT22;41709;52.536;5.688;2024-03-23T16:35:54;9.20;75.50
55785;DHT22;41709;52.536;5.688;2024-03-23T16:38:20;9.00;76.60
55785;DHT22;41709;52.536;5.688;2024-03-23T16:40:52;8.90;77.20